Time;durP1;ratioP1;P1;durP2;ratioP2;P2;SDS_P1;SDS_P2;PMS_P1;PMS_P2;Temp;Humidity;BMP_temperature;BMP_pressure;BME280_temperature;BME280_humidity;BME280_pressure;Samples;Min_cycle;Max_cycle;Signal;HPM_P1;HPM_P2
2024/01/12 00:00:26;;;;;;;16.90;9.57;;;0.50;99.90;;;-0.42;94.07;102853.34;4134383;28;20081;-68
2024/01/12 00:02:26;;;;;;;15.65;8.95;;;0.50;99.90;;;-0.53;94.67;102850.97;4134339;28;20030;-67
2024/01/12 00:04:27;;;;;;;16.17;9.30;;;0.50;99.90;;;-0.52;94.36;102857.03;4135650;28;20085;-68
2024/01/12 00:06:28;;;;;;;13.68;8.38;;;0.40;99.90;;;-0.58;93.94;102852.84;4136194;28;20076;-68
2024/01/12 00:08:29;;;;;;;14.50;8.70;;;0.40;99.90;;;-0.56;94.39;102858.81;4136025;28;20030;-68
2024/01/12 00:10:30;;;;;;;13.82;7.70;;;0.40;99.90;;;-0.60;93.96;102862.38;4134731;28;20142;-68
2024/01/12 00:12:31;;;;;;;14.30;8.32;;;0.40;99.90;;;-0.64;94.17;102861.59;4135732;28;20137;-67
2024/01/12 00:14:32;;;;;;;15.13;8.38;;;0.40;99.90;;;-0.62;93.64;102858.97;4151110;28;20034;-67
2024/01/12 00:16:32;;;;;;;16.65;9.00;;;0.30;99.90;;;-0.63;93.72;102859.88;4136060;28;20034;-67
2024/01/12 00:18:38;;;;;;;14.52;8.35;;;0.30;99.90;;;-0.65;93.74;102864.22;4136076;28;20441;-68
2024/01/12 00:20:42;;;;;;;17.13;7.55;;;0.30;99.90;;;-0.69;93.76;102860.00;4135645;28;20034;-67
2024/01/12 00:22:43;;;;;;;12.90;8.45;;;0.30;99.90;;;-0.79;93.98;102858.47;4134798;28;20058;-67
2024/01/12 00:24:44;;;;;;;15.20;8.00;;;0.20;99.90;;;-0.87;94.24;102850.88;4135995;28;20025;-67
2024/01/12 00:26:46;;;;;;;14.18;7.68;;;0.20;99.90;;;-0.83;94.42;102862.00;4135884;28;20478;-68
2024/01/12 00:28:47;;;;;;;13.90;7.45;;;0.10;99.90;;;-0.83;93.83;102851.63;4135950;28;20089;-67
2024/01/12 00:30:48;;;;;;;12.55;7.65;;;0.10;99.90;;;-0.89;94.52;102856.94;4135984;28;20097;-68
2024/01/12 00:32:49;;;;;;;14.65;8.77;;;0.10;99.90;;;-0.94;94.63;102853.59;4135884;28;20490;-67
2024/01/12 00:34:50;;;;;;;16.25;8.95;;;0.10;99.90;;;-0.91;94.70;102856.13;4166960;28;20099;-67
2024/01/12 00:36:53;;;;;;;16.77;9.75;;;0.00;99.90;;;-0.88;94.51;102863.84;4135806;28;20091;-68
2024/01/12 00:38:54;;;;;;;14.70;8.47;;;0.00;99.90;;;-0.91;94.61;102861.31;4135878;28;20101;-67
2024/01/12 00:40:55;;;;;;;21.33;11.32;;;0.00;99.90;;;-0.95;94.46;102855.34;4135953;28;20022;-67
2024/01/12 00:42:56;;;;;;;14.68;9.25;;;0.00;99.90;;;-1.00;94.54;102854.59;4135827;28;20890;-68
2024/01/12 00:44:56;;;;;;;20.10;10.02;;;0.00;99.90;;;-0.95;94.51;102857.06;4134305;28;20035;-68
2024/01/12 00:46:57;;;;;;;15.70;10.20;;;0.00;99.90;;;-1.07;94.52;102850.41;4136000;28;20081;-68
2024/01/12 00:48:58;;;;;;;17.92;10.15;;;0.00;99.90;;;-1.04;95.15;102857.25;4135952;28;20030;-67
2024/01/12 00:50:59;;;;;;;19.33;11.15;;;-0.10;99.90;;;-1.08;95.09;102858.22;4135502;28;20022;-67
2024/01/12 00:53:00;;;;;;;20.38;10.57;;;-0.10;99.90;;;-1.08;95.53;102855.63;4135527;28;20023;-68
2024/01/12 00:55:01;;;;;;;17.23;10.27;;;-0.10;99.90;;;-1.05;95.64;102846.06;4135740;28;20034;-67
2024/01/12 00:57:02;;;;;;;16.50;9.68;;;-0.10;99.90;;;-1.07;95.41;102846.94;4135637;28;20019;-67
2024/01/12 00:59:04;;;;;;;18.58;9.88;;;-0.10;99.90;;;-1.06;94.96;102846.06;4135903;28;20034;-67
2024/01/12 01:01:05;;;;;;;17.75;9.50;;;-0.10;99.90;;;-1.10;95.33;102837.50;4134439;28;20028;-67
2024/01/12 01:03:06;;;;;;;20.33;10.57;;;-0.10;99.90;;;-1.14;95.75;102839.34;4134353;28;20027;-67
2024/01/12 01:05:07;;;;;;;20.77;11.52;;;-0.10;99.90;;;-1.11;96.22;102841.00;4135461;28;20026;-67
2024/01/12 01:07:08;;;;;;;19.00;10.10;;;-0.10;99.90;;;-1.13;96.14;102847.94;4135545;28;20033;-67
2024/01/12 01:09:09;;;;;;;20.25;10.40;;;-0.20;99.90;;;-1.16;96.50;102848.84;4133801;28;20031;-67
2024/01/12 01:11:09;;;;;;;23.90;10.63;;;-0.20;99.90;;;-1.16;96.67;102851.44;4135250;28;20062;-68
2024/01/12 01:13:13;;;;;;;17.05;10.13;;;-0.20;99.90;;;-1.21;96.98;102853.28;4135615;28;20030;-68
2024/01/12 01:15:14;;;;;;;16.88;8.52;;;-0.20;99.90;;;-1.21;97.28;102847.22;4138101;28;20033;-68
2024/01/12 01:17:15;;;;;;;19.70;9.68;;;-0.20;99.90;;;-1.19;97.82;102848.91;4138310;28;20161;-68
2024/01/12 01:19:16;;;;;;;16.63;8.90;;;-0.20;99.90;;;-1.19;98.11;102838.53;4136984;28;20026;-67
2024/01/12 01:21:17;;;;;;;15.52;8.60;;;-0.20;99.90;;;-1.17;98.08;102830.75;4137135;28;20102;-67
2024/01/12 01:23:20;;;;;;;14.65;8.70;;;-0.20;99.90;;;-1.12;98.24;102840.16;4138334;28;20023;-68
2024/01/12 01:25:21;;;;;;;15.02;8.68;;;-0.20;99.90;;;-1.17;98.49;102841.97;4138237;28;20057;-67
2024/01/12 01:27:22;;;;;;;17.33;9.50;;;-0.20;99.90;;;-1.16;99.44;102842.81;4130805;28;20054;-67
2024/01/12 01:29:23;;;;;;;16.92;7.60;;;-0.20;99.90;;;-1.17;99.79;102841.13;4138183;28;20517;-67
2024/01/12 01:31:24;;;;;;;15.63;8.77;;;-0.20;99.90;;;-1.18;99.99;102850.63;4169943;28;20064;-68
2024/01/12 01:33:25;;;;;;;15.88;8.45;;;-0.20;99.90;;;-1.13;100.00;102851.38;4138259;28;20077;-68
2024/01/12 01:35:25;;;;;;;14.52;7.60;;;-0.20;99.90;;;-1.12;100.00;102860.88;4137879;28;20041;-67
2024/01/12 01:37:26;;;;;;;16.58;7.75;;;-0.20;99.90;;;-1.06;100.00;102865.06;4138175;28;20041;-68
2024/01/12 01:39:27;;;;;;;13.77;8.32;;;-0.10;99.90;;;-1.06;100.00;102861.63;4138105;28;20494;-68
2024/01/12 01:41:28;;;;;;;14.13;7.95;;;-0.10;99.90;;;-1.04;100.00;102852.06;4138065;28;20069;-67
2024/01/12 01:43:29;;;;;;;16.42;9.05;;;-0.10;99.90;;;-1.07;100.00;102847.81;4137949;28;20482;-68
2024/01/12 01:45:33;;;;;;;14.93;8.40;;;-0.10;99.90;;;-1.08;100.00;102847.84;4136913;28;20398;-68
2024/01/12 01:47:34;;;;;;;13.52;8.63;;;-0.10;99.90;;;-1.06;100.00;102851.25;4138199;28;20030;-67
2024/01/12 01:49:35;;;;;;;12.23;7.47;;;-0.10;99.90;;;-1.07;100.00;102852.13;4137666;28;20037;-68
2024/01/12 01:51:37;;;;;;;12.23;7.53;;;-0.10;99.90;;;-1.12;100.00;102853.09;4152818;28;20045;-68
2024/01/12 01:53:38;;;;;;;16.35;8.57;;;-0.10;99.90;;;-1.11;100.00;102854.78;4125069;28;20049;-68
2024/01/12 01:55:39;;;;;;;18.23;8.52;;;-0.10;99.90;;;-1.09;100.00;102859.94;4137927;28;20037;-68
2024/01/12 01:57:42;;;;;;;14.57;8.88;;;-0.10;99.90;;;-1.13;100.00;102869.50;4136676;28;20031;-68
2024/01/12 01:59:44;;;;;;;14.77;7.28;;;-0.10;99.90;;;-1.18;100.00;102862.72;4120663;28;20023;-68
2024/01/12 02:01:45;;;;;;;16.80;8.43;;;-0.20;99.90;;;-1.17;100.00;102869.59;4137890;28;20086;-68
2024/01/12 02:03:47;;;;;;;13.75;8.65;;;-0.20;99.90;;;-1.18;100.00;102858.38;4137917;28;20045;-68
2024/01/12 02:05:50;;;;;;;16.30;8.32;;;-0.20;99.90;;;-1.12;100.00;102865.19;4120127;28;20030;-68
2024/01/12 02:07:51;;;;;;;14.93;8.90;;;-0.20;99.90;;;-1.13;100.00;102869.50;4136509;28;20023;-68
2024/01/12 02:09:52;;;;;;;14.68;7.75;;;-0.20;99.90;;;-1.19;100.00;102859.25;4137689;28;20034;-68
2024/01/12 02:11:53;;;;;;;17.63;9.23;;;-0.20;99.90;;;-1.22;100.00;102868.81;4136365;28;20046;-67
2024/01/12 02:13:54;;;;;;;14.32;8.88;;;-0.30;99.90;;;-1.26;100.00;102870.63;4137622;28;20030;-68
2024/01/12 02:15:54;;;;;;;17.13;8.98;;;-0.30;99.90;;;-1.24;100.00;102870.59;4120117;28;20117;-68
2024/01/12 02:17:55;;;;;;;14.95;9.05;;;-0.30;99.90;;;-1.26;100.00;102862.88;4136347;28;20038;-68
2024/01/12 02:20:00;;;;;;;18.38;9.25;;;-0.30;99.90;;;-1.29;100.00;102865.53;4136182;28;20521;-68
2024/01/12 02:22:01;;;;;;;16.02;9.02;;;-0.30;99.90;;;-1.34;100.00;102859.56;4139121;28;20094;-68
2024/01/12 02:24:01;;;;;;;17.80;8.90;;;-0.30;99.90;;;-1.33;100.00;102868.19;4168713;28;20021;-67
2024/01/12 02:26:02;;;;;;;16.20;9.60;;;-0.30;99.90;;;-1.34;100.00;102867.31;4136486;28;20113;-68
2024/01/12 02:28:04;;;;;;;18.08;10.02;;;-0.40;99.90;;;-1.37;100.00;102861.34;4136170;28;20030;-68
2024/01/12 02:30:05;;;;;;;14.68;9.13;;;-0.40;99.90;;;-1.33;100.00;102863.00;4136217;28;20023;-68
2024/01/12 02:32:06;;;;;;;17.73;9.18;;;-0.40;99.90;;;-1.31;100.00;102869.84;4136060;28;20038;-68
2024/01/12 02:34:07;;;;;;;15.82;9.13;;;-0.40;99.90;;;-1.37;100.00;102859.59;4136102;28;20033;-68
2024/01/12 02:36:08;;;;;;;17.00;8.88;;;-0.40;99.90;;;-1.34;100.00;102864.72;4119695;28;20502;-67
2024/01/12 02:38:09;;;;;;;13.90;8.27;;;-0.40;99.90;;;-1.33;100.00;102860.41;4136162;28;20054;-68
2024/01/12 02:40:10;;;;;;;16.92;8.93;;;-0.40;99.90;;;-1.26;100.00;102869.78;4137106;28;20034;-67
2024/01/12 02:42:11;;;;;;;15.80;8.63;;;-0.30;99.90;;;-1.24;100.00;102858.50;4136099;28;20116;-68
2024/01/12 02:44:12;;;;;;;13.93;8.05;;;-0.30;99.90;;;-1.21;100.00;102866.22;4137248;28;20035;-67
2024/01/12 02:46:13;;;;;;;16.13;9.07;;;-0.30;99.90;;;-1.19;100.00;102855.81;4137175;28;20022;-67
2024/01/12 02:48:14;;;;;;;12.57;7.47;;;-0.30;99.90;;;-1.23;100.00;102852.47;4135920;28;20577;-68
2024/01/12 02:50:15;;;;;;;16.10;8.48;;;-0.30;99.90;;;-1.25;100.00;102856.78;4136941;28;20033;-67
2024/01/12 02:52:16;;;;;;;16.30;9.00;;;-0.30;99.90;;;-1.26;100.00;102854.25;4136767;28;20061;-68
2024/01/12 02:54:17;;;;;;;14.30;8.75;;;-0.30;99.90;;;-1.26;100.00;102847.34;4136994;28;20031;-68
2024/01/12 02:56:18;;;;;;;15.98;8.23;;;-0.30;99.90;;;-1.23;100.00;102855.03;4168356;28;20425;-67
2024/01/12 02:58:18;;;;;;;16.42;7.82;;;-0.30;99.90;;;-1.23;100.00;102852.47;4136707;28;20031;-68
2024/01/12 03:00:19;;;;;;;13.27;7.80;;;-0.30;99.90;;;-1.28;100.00;102854.25;4135642;28;20041;-68
2024/01/12 03:02:20;;;;;;;14.20;8.25;;;-0.30;99.90;;;-1.32;100.00;102852.63;4135691;28;20211;-67
2024/01/12 03:04:21;;;;;;;14.27;8.15;;;-0.40;99.90;;;-1.33;100.00;102852.66;4135441;28;20096;-68
2024/01/12 03:06:22;;;;;;;13.32;8.77;;;-0.30;99.90;;;-1.38;100.00;102852.75;4136725;28;20026;-68
2024/01/12 03:08:23;;;;;;;11.73;8.13;;;-0.40;99.90;;;-1.41;100.00;102837.28;4136812;28;20029;-68
2024/01/12 03:10:24;;;;;;;16.88;8.88;;;-0.40;99.90;;;-1.42;100.00;102843.31;4134749;28;20421;-67
2024/01/12 03:12:25;;;;;;;14.10;8.55;;;-0.40;99.90;;;-1.33;100.00;102844.88;4136482;28;20054;-67
2024/01/12 03:14:26;;;;;;;18.95;9.65;;;-0.40;99.90;;;-1.40;100.00;102838.97;4136915;28;20038;-67
2024/01/12 03:16:27;;;;;;;17.10;8.88;;;-0.40;99.90;;;-1.42;100.00;102852.81;4135361;28;20042;-68
2024/01/12 03:18:28;;;;;;;16.02;8.82;;;-0.40;99.90;;;-1.42;100.00;102840.72;4136594;28;20030;-67
2024/01/12 03:20:29;;;;;;;15.98;8.80;;;-0.50;99.90;;;-1.41;100.00;102842.44;4135242;28;20030;-67
2024/01/12 03:22:30;;;;;;;14.90;9.18;;;-0.40;99.90;;;-1.34;100.00;102840.56;4136549;28;20037;-67
2024/01/12 03:24:31;;;;;;;15.73;9.10;;;-0.40;99.90;;;-1.36;100.00;102844.94;4136609;28;20026;-67
2024/01/12 03:26:37;;;;;;;15.18;9.48;;;-0.40;99.90;;;-1.36;100.00;102853.56;4136415;28;20023;-67
2024/01/12 03:28:38;;;;;;;16.75;8.75;;;-0.40;99.90;;;-1.35;100.00;102836.28;4136660;28;20100;-68
2024/01/12 03:30:39;;;;;;;16.05;8.38;;;-0.30;99.90;;;-1.36;100.00;102840.63;4135166;28;20030;-68
2024/01/12 03:32:43;;;;;;;13.40;8.80;;;-0.30;99.90;;;-1.38;100.00;102846.72;4135367;28;20581;-68
2024/01/12 03:34:44;;;;;;;14.45;7.88;;;-0.40;99.90;;;-1.30;100.00;102845.69;4135044;28;20097;-68
2024/01/12 03:36:45;;;;;;;17.65;9.20;;;-0.40;99.90;;;-1.31;100.00;102843.09;4136148;28;20033;-68
2024/01/12 03:38:46;;;;;;;15.18;8.35;;;-0.30;99.90;;;-1.33;100.00;102837.97;4136247;28;20026;-68
2024/01/12 03:40:47;;;;;;;15.43;9.52;;;-0.30;99.90;;;-1.33;100.00;102850.91;4135459;28;20026;-68
2024/01/12 03:42:48;;;;;;;17.88;9.20;;;-0.40;99.90;;;-1.30;100.00;102837.91;4135553;28;20052;-68
2024/01/12 03:44:48;;;;;;;17.35;9.00;;;-0.40;99.90;;;-1.29;100.00;102836.19;4136378;28;20085;-68
2024/01/12 03:46:49;;;;;;;13.90;8.57;;;-0.40;99.90;;;-1.30;100.00;102829.28;4136363;28;20069;-68
2024/01/12 03:48:50;;;;;;;11.48;7.47;;;-0.40;99.90;;;-1.35;100.00;102831.97;4136582;28;20037;-68
2024/01/12 03:50:51;;;;;;;12.57;8.13;;;-0.40;99.90;;;-1.30;100.00;102829.28;4134974;28;20026;-67
2024/01/12 03:52:52;;;;;;;14.60;8.75;;;-0.40;99.90;;;-1.32;100.00;102836.25;4136329;28;20085;-68
2024/01/12 03:54:52;;;;;;;12.52;7.25;;;-0.40;99.90;;;-1.39;100.00;102830.31;4136130;28;20061;-68
2024/01/12 03:56:53;;;;;;;13.27;7.97;;;-0.40;99.90;;;-1.47;100.00;102819.28;4136101;28;20030;-68
2024/01/12 03:58:54;;;;;;;19.05;9.30;;;-0.40;99.90;;;-1.46;100.00;102828.72;4136149;28;20026;-68
2024/01/12 04:00:55;;;;;;;14.82;8.38;;;-0.50;99.90;;;-1.50;100.00;102814.16;4136146;28;20441;-68
2024/01/12 04:02:56;;;;;;;14.35;8.73;;;-0.50;99.90;;;-1.53;100.00;102816.78;4136078;28;20398;-68
2024/01/12 04:04:57;;;;;;;13.13;8.93;;;-0.50;99.90;;;-1.51;100.00;102819.34;4136065;28;20093;-67
2024/01/12 04:06:58;;;;;;;20.13;8.40;;;-0.50;99.90;;;-1.48;100.00;102827.91;4134866;28;20022;-68
2024/01/12 04:08:58;;;;;;;17.05;8.85;;;-0.50;99.90;;;-1.47;100.00;102821.84;4136193;28;20026;-68
2024/01/12 04:10:59;;;;;;;17.23;9.18;;;-0.50;99.90;;;-1.46;100.00;102820.94;4135940;28;20027;-68
2024/01/12 04:13:00;;;;;;;13.27;8.50;;;-0.50;99.90;;;-1.40;100.00;102818.25;4135189;28;20034;-68
2024/01/12 04:15:01;;;;;;;13.13;8.60;;;-0.50;99.90;;;-1.38;100.00;102821.69;4135021;28;20144;-68
2024/01/12 04:17:02;;;;;;;17.00;8.43;;;-0.50;99.90;;;-1.35;100.00;102824.22;4136068;28;20041;-68
2024/01/12 04:19:02;;;;;;;13.23;8.95;;;-0.40;99.90;;;-1.36;100.00;102819.06;4135997;28;20030;-67
2024/01/12 04:21:04;;;;;;;15.20;8.90;;;-0.40;99.90;;;-1.30;100.00;102832.72;4135855;28;20039;-68
2024/01/12 04:23:04;;;;;;;13.95;8.10;;;-0.40;99.90;;;-1.33;100.00;102819.00;4136015;28;20026;-68
2024/01/12 04:25:06;;;;;;;13.35;8.23;;;-0.40;99.90;;;-1.32;100.00;102831.06;4134760;28;20037;-67
2024/01/12 04:27:07;;;;;;;13.55;8.45;;;-0.40;99.90;;;-1.37;100.00;102831.13;4135939;28;20105;-68
2024/01/12 04:29:08;;;;;;;14.32;8.98;;;-0.40;99.90;;;-1.37;100.00;102828.53;4135754;28;20031;-68
2024/01/12 04:31:09;;;;;;;14.68;9.30;;;-0.40;99.90;;;-1.32;100.00;102826.75;4135601;28;20038;-68
2024/01/12 04:33:10;;;;;;;16.77;9.55;;;-0.40;99.90;;;-1.33;100.00;102835.38;4136004;28;20034;-68
2024/01/12 04:35:11;;;;;;;21.10;9.85;;;-0.40;99.90;;;-1.35;100.00;102829.38;4135625;28;20038;-67
2024/01/12 04:37:12;;;;;;;15.80;9.23;;;-0.30;99.90;;;-1.39;100.00;102822.56;4135679;28;20033;-68
2024/01/12 04:39:13;;;;;;;12.50;8.15;;;-0.40;99.90;;;-1.39;100.00;102830.31;4134930;28;20027;-67
2024/01/12 04:41:13;;;;;;;13.85;8.63;;;-0.40;99.90;;;-1.42;100.00;102830.38;4134622;28;20042;-67
2024/01/12 04:43:14;;;;;;;16.98;8.55;;;-0.50;99.90;;;-1.37;100.00;102823.38;4135885;28;20037;-67
2024/01/12 04:45:15;;;;;;;14.57;8.18;;;-0.40;99.90;;;-1.37;100.00;102823.38;4135619;28;20027;-68
2024/01/12 04:47:16;;;;;;;15.20;8.73;;;-0.40;99.90;;;-1.31;100.00;102833.59;4134721;28;20077;-67
2024/01/12 04:49:17;;;;;;;16.38;9.30;;;-0.40;99.90;;;-1.33;100.00;102824.16;4136764;28;20406;-67
2024/01/12 04:51:18;;;;;;;18.00;8.57;;;-0.40;99.90;;;-1.33;100.00;102829.34;4138869;28;20041;-68
2024/01/12 04:53:19;;;;;;;14.25;8.45;;;-0.40;99.90;;;-1.31;100.00;102824.97;4138754;28;20022;-67
2024/01/12 04:55:20;;;;;;;14.65;9.10;;;-0.40;99.90;;;-1.36;100.00;102819.06;4138981;28;20029;-67
2024/01/12 04:57:21;;;;;;;15.35;8.40;;;-0.40;99.90;;;-1.32;100.00;102826.75;4138766;28;20022;-67
2024/01/12 04:59:22;;;;;;;19.83;9.82;;;-0.40;99.90;;;-1.21;100.00;102827.38;4170158;28;20033;-67
2024/01/12 05:01:23;;;;;;;15.48;8.60;;;-0.30;99.90;;;-1.23;100.00;102820.53;4138434;28;20474;-67
2024/01/12 05:03:24;;;;;;;15.00;8.82;;;-0.30;99.90;;;-1.22;100.00;102814.44;4137594;28;20553;-67
2024/01/12 05:05:25;;;;;;;13.23;7.78;;;-0.30;99.90;;;-1.25;100.00;102828.31;4141156;28;20444;-67
2024/01/12 05:07:26;;;;;;;14.32;8.40;;;-0.30;99.90;;;-1.20;100.00;102820.47;4138684;28;20061;-67
2024/01/12 05:09:26;;;;;;;13.98;8.75;;;-0.20;99.90;;;-1.16;100.00;102822.94;4138516;28;20026;-68
2024/01/12 05:11:27;;;;;;;14.30;8.18;;;-0.20;99.90;;;-1.21;100.00;102818.75;4137014;28;20088;-68
2024/01/12 05:13:29;;;;;;;16.17;8.95;;;-0.20;99.90;;;-1.20;100.00;102823.91;4170218;28;20040;-68
2024/01/12 05:15:30;;;;;;;14.05;8.38;;;-0.20;99.90;;;-1.19;100.00;102822.16;4138593;28;20030;-68
2024/01/12 05:17:31;;;;;;;14.93;8.15;;;-0.20;99.90;;;-1.23;100.00;102823.13;4138478;28;20045;-67
2024/01/12 05:19:31;;;;;;;13.43;8.80;;;-0.20;99.90;;;-1.20;100.00;102816.16;4137093;28;20398;-68
2024/01/12 05:21:32;;;;;;;13.35;8.32;;;-0.20;99.90;;;-1.19;100.00;102823.00;4138398;28;20394;-68
2024/01/12 05:23:33;;;;;;;14.00;8.35;;;-0.20;99.90;;;-1.18;100.00;102821.28;4138412;28;20026;-68
2024/01/12 05:25:34;;;;;;;17.30;9.48;;;-0.20;99.90;;;-1.09;100.00;102825.41;4137184;28;20089;-68
2024/01/12 05:27:35;;;;;;;13.77;9.20;;;-0.20;99.90;;;-1.15;100.00;102827.25;4138383;28;20426;-67
2024/01/12 05:29:36;;;;;;;13.20;8.73;;;-0.20;99.90;;;-1.10;100.00;102827.16;4138325;28;20040;-67
2024/01/12 05:31:36;;;;;;;14.98;8.63;;;-0.20;99.90;;;-1.13;100.00;102828.06;4138087;28;20040;-68
2024/01/12 05:33:37;;;;;;;14.65;8.65;;;-0.10;99.90;;;-1.13;100.00;102824.63;4120848;28;20410;-67
2024/01/12 05:35:38;;;;;;;14.65;8.60;;;-0.20;99.90;;;-1.17;100.00;102818.69;4137803;28;20034;-68
2024/01/12 05:37:39;;;;;;;13.70;8.68;;;-0.20;99.90;;;-1.21;100.00;102811.84;4153194;28;20030;-67
2024/01/12 05:39:41;;;;;;;15.93;9.15;;;-0.20;99.90;;;-1.23;100.00;102821.38;4138225;28;20110;-68
2024/01/12 05:41:42;;;;;;;12.70;8.75;;;-0.20;99.90;;;-1.27;100.00;102813.69;4138111;28;20022;-67
2024/01/12 05:43:43;;;;;;;14.68;8.40;;;-0.20;99.90;;;-1.26;100.00;102821.44;4137985;28;20062;-67
2024/01/12 05:45:44;;;;;;;14.30;8.55;;;-0.30;99.90;;;-1.26;100.00;102821.44;4138201;28;20450;-67
2024/01/12 05:47:45;;;;;;;15.20;8.32;;;-0.30;99.90;;;-1.19;100.00;102828.19;4138045;28;20038;-67
2024/01/12 05:49:45;;;;;;;11.32;7.15;;;-0.30;99.90;;;-1.19;100.00;102833.38;4136599;28;20031;-67
2024/01/12 05:51:47;;;;;;;17.15;8.57;;;-0.20;99.90;;;-1.17;100.00;102833.34;4137799;28;20057;-67
2024/01/12 05:53:48;;;;;;;17.27;7.68;;;-0.20;99.90;;;-1.16;100.00;102829.88;4138022;28;20023;-68
2024/01/12 05:55:49;;;;;;;16.85;8.73;;;-0.20;99.90;;;-1.16;100.00;102828.13;4137889;28;20077;-67
2024/01/12 05:57:50;;;;;;;16.65;8.93;;;-0.20;99.90;;;-1.17;100.00;102825.59;4137793;28;20478;-68
2024/01/12 05:59:51;;;;;;;12.45;8.25;;;-0.20;99.90;;;-1.19;100.00;102822.16;4137550;28;20031;-67
2024/01/12 06:01:54;;;;;;;18.45;9.32;;;-0.20;99.90;;;-1.26;100.00;102826.63;4137715;28;20080;-67
2024/01/12 06:03:55;;;;;;;16.30;8.65;;;-0.20;99.90;;;-1.25;100.00;102835.22;4137810;28;20023;-68
2024/01/12 06:05:56;;;;;;;17.05;8.85;;;-0.30;99.90;;;-1.26;100.00;102836.13;4137504;28;20037;-67
2024/01/12 06:07:57;;;;;;;16.60;8.25;;;-0.30;99.90;;;-1.22;100.00;102828.25;4137581;28;20078;-67
2024/01/12 06:09:58;;;;;;;13.82;8.18;;;-0.30;99.90;;;-1.32;100.00;102823.28;4137539;28;20528;-68
2024/01/12 06:11:59;;;;;;;14.70;8.43;;;-0.30;99.90;;;-1.30;100.00;102834.47;4137436;28;20485;-68
2024/01/12 06:14:00;;;;;;;16.95;9.77;;;-0.30;99.90;;;-1.29;100.00;102831.88;4137647;28;20147;-68
2024/01/12 06:16:02;;;;;;;15.80;7.93;;;-0.30;99.90;;;-1.33;100.00;102830.22;4137499;28;20400;-68
2024/01/12 06:18:03;;;;;;;15.13;8.48;;;-0.30;99.90;;;-1.37;100.00;102813.00;4137585;28;20026;-67
2024/01/12 06:20:05;;;;;;;16.30;8.25;;;-0.30;99.90;;;-1.29;100.00;102828.41;4137406;28;20030;-68
2024/01/12 06:22:06;;;;;;;13.75;8.20;;;-0.30;99.90;;;-1.39;100.00;102819.97;4136287;28;20374;-68
2024/01/12 06:24:08;;;;;;;13.68;7.88;;;-0.40;99.90;;;-1.44;100.00;102814.03;4137407;28;20041;-67
2024/01/12 06:26:09;;;;;;;17.02;8.65;;;-0.40;99.90;;;-1.47;100.00;102819.28;4137647;28;20022;-67
2024/01/12 06:28:10;;;;;;;15.30;8.40;;;-0.50;99.90;;;-1.53;100.00;102821.97;4137495;28;20043;-68
2024/01/12 06:30:12;;;;;;;13.20;8.15;;;-0.50;99.90;;;-1.52;100.00;102822.81;4137201;28;20053;-68
2024/01/12 06:32:13;;;;;;;15.80;9.52;;;-0.50;99.90;;;-1.53;100.00;102826.28;4137231;28;20060;-67
2024/01/12 06:34:14;;;;;;;18.40;9.75;;;-0.50;99.90;;;-1.54;100.00;102817.66;4137197;28;20029;-67
2024/01/12 06:36:15;;;;;;;22.25;12.02;;;-0.50;99.90;;;-1.52;100.00;102821.06;4137377;28;20445;-67
2024/01/12 06:38:15;;;;;;;16.25;10.15;;;-0.50;99.90;;;-1.50;100.00;102816.75;4137221;28;20027;-67
2024/01/12 06:40:17;;;;;;;14.65;9.35;;;-0.50;99.90;;;-1.47;100.00;102823.59;4137302;28;20437;-67
2024/01/12 06:42:17;;;;;;;18.40;9.65;;;-0.50;99.90;;;-1.43;100.00;102826.06;4137219;28;20026;-68
2024/01/12 06:44:19;;;;;;;17.02;10.75;;;-0.50;99.90;;;-1.41;100.00;102826.91;4137359;28;20023;-67
2024/01/12 06:46:20;;;;;;;16.98;9.18;;;-0.40;99.90;;;-1.44;100.00;102837.34;4137313;28;20022;-67
2024/01/12 06:48:20;;;;;;;19.30;9.68;;;-0.40;99.90;;;-1.36;100.00;102834.59;4137018;28;20406;-67
2024/01/12 06:50:21;;;;;;;16.33;9.13;;;-0.40;99.90;;;-1.22;100.00;102846.38;4135666;28;20026;-68
2024/01/12 06:52:22;;;;;;;17.92;9.00;;;-0.30;99.90;;;-1.08;100.00;102840.09;4135956;28;20030;-67
2024/01/12 06:54:23;;;;;;;15.85;9.10;;;-0.20;99.90;;;-0.83;100.00;102846.44;4131150;28;20031;-67
2024/01/12 06:56:24;;;;;;;16.52;9.50;;;-0.10;99.90;;;-0.76;100.00;102840.28;4136996;28;20441;-67
2024/01/12 06:58:25;;;;;;;14.35;8.80;;;0.10;99.90;;;-0.69;100.00;102849.63;4136979;28;20030;-67
2024/01/12 07:00:26;;;;;;;20.75;9.73;;;0.20;99.90;;;-0.65;100.00;102849.50;4136985;28;20030;-67
2024/01/12 07:02:27;;;;;;;18.83;9.77;;;0.30;99.90;;;-0.54;100.00;102853.63;4136885;28;20520;-67
2024/01/12 07:04:28;;;;;;;16.52;9.43;;;0.40;99.90;;;-0.49;100.00;102852.63;4135330;28;20022;-68
2024/01/12 07:06:29;;;;;;;16.70;8.52;;;0.40;99.90;;;-0.38;100.00;102855.81;4136895;28;20030;-67
2024/01/12 07:08:30;;;;;;;14.93;9.18;;;0.50;99.90;;;-0.30;100.00;102866.88;4135606;28;20579;-68
2024/01/12 07:10:30;;;;;;;16.17;9.85;;;0.60;99.90;;;-0.20;100.00;102855.41;4136771;28;20077;-67
2024/01/12 07:12:31;;;;;;;20.08;9.55;;;0.70;99.90;;;-0.16;100.00;102849.28;4136012;28;20051;-68
2024/01/12 07:14:32;;;;;;;18.05;9.73;;;0.80;99.90;;;-0.09;100.00;102853.41;4135574;28;20026;-67
2024/01/12 07:16:33;;;;;;;14.20;9.88;;;0.80;99.90;;;-0.03;100.00;102862.81;4136749;28;20041;-67
2024/01/12 07:18:34;;;;;;;16.50;8.75;;;0.90;99.90;;;0.00;100.00;102858.38;4135514;28;20034;-67
2024/01/12 07:20:35;;;;;;;16.88;8.40;;;0.90;99.90;;;0.02;100.00;102853.16;4136453;28;20025;-67
2024/01/12 07:22:36;;;;;;;15.18;8.68;;;1.00;99.90;;;0.08;100.00;102846.97;4136529;28;20084;-67
2024/01/12 07:24:37;;;;;;;18.20;9.43;;;1.00;99.90;;;0.12;100.00;102853.81;4119290;28;20034;-68
2024/01/12 07:26:38;;;;;;;15.68;8.38;;;1.10;99.90;;;0.17;100.00;102854.53;4136542;28;20030;-67
2024/01/12 07:28:39;;;;;;;16.35;8.85;;;1.10;99.90;;;0.15;100.00;102836.38;4136271;28;20026;-67
2024/01/12 07:30:40;;;;;;;17.15;9.40;;;1.20;99.90;;;0.26;100.00;102855.16;4136479;28;20034;-67
2024/01/12 07:32:41;;;;;;;15.75;9.20;;;1.20;99.90;;;0.30;100.00;102853.34;4136525;28;20471;-67
2024/01/12 07:34:42;;;;;;;16.52;7.90;;;1.20;99.90;;;0.31;100.00;102853.28;4136245;28;20022;-68
2024/01/12 07:36:44;;;;;;;15.20;8.15;;;1.20;99.90;;;0.36;100.00;102855.78;4135343;28;20036;-68
2024/01/12 07:38:45;;;;;;;17.73;9.27;;;1.30;99.90;;;0.42;100.00;102853.00;4136239;28;20393;-68
2024/01/12 07:40:46;;;;;;;14.73;8.27;;;1.30;99.90;;;0.46;100.00;102849.44;4134941;28;20026;-68
2024/01/12 07:42:47;;;;;;;15.40;8.45;;;1.40;99.90;;;0.44;100.00;102849.50;4136257;28;20497;-68
2024/01/12 07:44:49;;;;;;;14.32;8.75;;;1.40;99.90;;;0.45;100.00;102845.13;4167729;28;20080;-68
2024/01/12 07:46:50;;;;;;;13.35;7.25;;;1.40;99.90;;;0.52;100.00;102847.53;4136085;28;20027;-67
2024/01/12 07:48:51;;;;;;;14.75;8.43;;;1.40;99.90;;;0.56;100.00;102843.13;4135170;28;20040;-68
2024/01/12 07:50:52;;;;;;;12.20;7.43;;;1.50;99.90;;;0.61;100.00;102843.84;4134965;28;20026;-68
2024/01/12 07:52:53;;;;;;;14.52;8.15;;;1.50;99.90;;;0.68;100.00;102849.72;4136064;28;20034;-68
2024/01/12 07:54:54;;;;;;;11.95;7.97;;;1.50;99.90;;;0.71;100.00;102849.66;4136112;28;20033;-67
2024/01/12 07:56:55;;;;;;;16.10;8.00;;;1.60;99.90;;;0.74;100.00;102841.78;4136230;28;20061;-68
2024/01/12 07:58:57;;;;;;;15.00;7.53;;;1.60;99.90;;;0.79;100.00;102838.16;4134901;28;20030;-67
2024/01/12 08:00:59;;;;;;;11.55;6.55;;;1.70;99.90;;;0.85;100.00;102850.97;4136132;28;20037;-67
2024/01/12 08:03:00;;;;;;;13.48;8.07;;;1.70;99.90;;;0.86;100.00;102837.09;4135907;28;20029;-68
2024/01/12 08:05:00;;;;;;;12.93;7.43;;;1.80;99.90;;;0.89;100.00;102839.63;4135846;28;20393;-68
2024/01/12 08:07:02;;;;;;;10.90;6.72;;;1.80;99.90;;;0.95;100.00;102843.78;4136347;28;20022;-68
2024/01/12 08:09:03;;;;;;;13.27;7.43;;;1.80;99.90;;;1.00;100.00;102850.53;4135010;28;20081;-68
2024/01/12 08:11:04;;;;;;;13.50;8.07;;;1.90;99.90;;;1.03;100.00;102845.25;4135824;28;20034;-67
2024/01/12 08:13:05;;;;;;;15.60;6.75;;;1.90;99.90;;;1.04;100.00;102841.78;4134637;28;20053;-68
2024/01/12 08:15:09;;;;;;;11.48;7.30;;;1.90;99.90;;;1.13;100.00;102836.28;4136087;28;20027;-68